Time;durP1;ratioP1;P1;durP2;ratioP2;P2;SDS_P1;SDS_P2;PMS_P1;PMS_P2;Temp;Humidity;BMP_temperature;BMP_pressure;BME280_temperature;BME280_humidity;BME280_pressure;Samples;Min_cycle;Max_cycle;Signal;HPM_P1;HPM_P2
2023/10/01 00:02:25;;;;;;;;;;;12.60;99.90;;;;;;6726514;88;20066;-80
2023/10/01 00:12:25;;;;;;;;;;;12.70;99.90;;;;;;6729966;88;20061;-81
2023/10/01 00:22:26;;;;;;;;;;;12.60;99.90;;;;;;6729947;88;20081;-81
2023/10/01 00:32:29;;;;;;;;;;;12.70;99.90;;;;;;6729858;88;20517;-81
2023/10/01 00:42:32;;;;;;;;;;;12.60;99.90;;;;;;6729827;88;20074;-81
2023/10/01 00:52:33;;;;;;;;;;;12.60;99.90;;;;;;6712750;88;20070;-80
2023/10/01 01:02:37;;;;;;;;;;;12.70;99.90;;;;;;6730013;88;20209;-81
2023/10/01 01:12:38;;;;;;;;;;;12.70;99.90;;;;;;6711586;88;20036;-80
2023/10/01 01:22:40;;;;;;;;;;;12.40;99.90;;;;;;6746159;88;20155;-80
2023/10/01 01:32:41;;;;;;;;;;;12.20;99.90;;;;;;6746303;88;20085;-79
2023/10/01 01:42:41;;;;;;;;;;;12.10;99.90;;;;;;6746642;88;20200;-81
2023/10/01 01:52:41;;;;;;;;;;;12.10;99.90;;;;;;6746713;88;20395;-80
2023/10/01 02:02:59;;;;;;;;;;;12.00;99.90;;;;;;6748284;88;20120;-80
2023/10/01 02:13:01;;;;;;;;;;;11.90;99.90;;;;;;6747352;88;20040;-81
2023/10/01 02:23:05;;;;;;;;;;;12.00;99.90;;;;;;6746367;88;20070;-81
2023/10/01 02:33:18;;;;;;;;;;;11.90;99.90;;;;;;6729241;88;20078;-80
2023/10/01 02:43:19;;;;;;;;;;;11.90;99.90;;;;;;6728469;88;20046;-80
2023/10/01 02:53:21;;;;;;;;;;;11.80;99.90;;;;;;6728656;88;20065;-80
2023/10/01 03:03:31;;;;;;;;;;;11.90;99.90;;;;;;6724602;88;20096;-80
2023/10/01 03:13:32;;;;;;;;;;;11.80;99.90;;;;;;6722575;88;20076;-81
2023/10/01 03:23:33;;;;;;;;;;;11.80;99.90;;;;;;6727148;88;20212;-80
2023/10/01 03:33:37;;;;;;;;;;;11.80;99.90;;;;;;6728954;88;20054;-81
2023/10/01 03:43:38;;;;;;;;;;;11.70;99.90;;;;;;6709390;88;20094;-81
2023/10/01 03:53:39;;;;;;;;;;;11.70;99.90;;;;;;6718195;88;20106;-80
2023/10/01 04:03:42;;;;;;;;;;;11.80;99.90;;;;;;6711107;88;20563;-81
2023/10/01 04:13:43;;;;;;;;;;;11.70;99.90;;;;;;6706148;88;20063;-80
2023/10/01 04:23:49;;;;;;;;;;;11.80;99.90;;;;;;6710261;88;20110;-80
2023/10/01 04:33:50;;;;;;;;;;;11.70;99.90;;;;;;6727118;88;20077;-81
2023/10/01 04:44:06;;;;;;;;;;;11.60;99.90;;;;;;6722655;88;20158;-80
2023/10/01 04:54:07;;;;;;;;;;;11.60;99.90;;;;;;6731809;88;20622;-81
2023/10/01 05:04:11;;;;;;;;;;;11.60;99.90;;;;;;6734494;88;20067;-80
2023/10/01 05:14:12;;;;;;;;;;;11.60;99.90;;;;;;6748908;88;20067;-80
2023/10/01 05:24:15;;;;;;;;;;;11.50;99.90;;;;;;6738679;88;20031;-80
2023/10/01 05:34:17;;;;;;;;;;;11.40;99.90;;;;;;6745218;88;20133;-81
2023/10/01 05:44:21;;;;;;;;;;;11.40;99.90;;;;;;6748362;88;20042;-80
2023/10/01 05:54:22;;;;;;;;;;;11.30;99.90;;;;;;6743445;88;20053;-79
2023/10/01 06:04:22;;;;;;;;;;;11.40;99.90;;;;;;6710604;88;20120;-80
2023/10/01 06:14:41;;;;;;;;;;;11.50;99.90;;;;;;6742556;88;20043;-80
2023/10/01 06:24:43;;;;;;;;;;;11.60;99.90;;;;;;6749271;88;20043;-81
2023/10/01 06:34:45;;;;;;;;;;;11.60;99.90;;;;;;6749065;88;20070;-81
2023/10/01 06:44:49;;;;;;;;;;;11.80;99.90;;;;;;6748645;88;20105;-81
2023/10/01 06:54:50;;;;;;;;;;;12.10;99.90;;;;;;6749508;88;20227;-81
2023/10/01 07:04:56;;;;;;;;;;;12.50;99.90;;;;;;6750068;88;20058;-82
2023/10/01 07:14:57;;;;;;;;;;;13.00;99.90;;;;;;6744670;88;20076;-81
2023/10/01 07:24:59;;;;;;;;;;;13.40;99.90;;;;;;6730454;88;20102;-82
2023/10/01 07:35:06;;;;;;;;;;;13.90;99.90;;;;;;6728542;88;20058;-81
2023/10/01 07:45:07;;;;;;;;;;;14.20;99.90;;;;;;6726277;88;20617;-81
2023/10/01 07:55:29;;;;;;;;;;;14.90;99.90;;;;;;6730001;88;20028;-82
2023/10/01 08:05:33;;;;;;;;;;;15.30;99.90;;;;;;6735104;78;20080;-79
2023/10/01 08:15:49;;;;;;;;;;;16.10;99.90;;;;;;6730948;88;20487;-80
2023/10/01 08:25:55;;;;;;;;;;;16.40;99.90;;;;;;6728774;88;20219;-80
2023/10/01 08:36:12;;;;;;;;;;;17.10;99.90;;;;;;6736091;88;20059;-79
2023/10/01 08:46:16;;;;;;;;;;;17.40;99.90;;;;;;6727828;88;20120;-79
2023/10/01 08:56:32;;;;;;;;;;;18.20;99.90;;;;;;6727052;88;20066;-78
2023/10/01 09:07:04;;;;;;;;;;;18.80;99.90;;;;;;6724898;88;20084;-79
2023/10/01 09:17:24;;;;;;;;;;;19.30;99.90;;;;;;6721001;88;20062;-79
2023/10/01 09:27:28;;;;;;;;;;;20.60;99.90;;;;;;6729590;88;20577;-79
2023/10/01 09:37:34;;;;;;;;;;;21.00;99.90;;;;;;6728000;88;20169;-79
2023/10/01 09:47:35;;;;;;;;;;;21.50;99.90;;;;;;6724880;88;20054;-79
2023/10/01 09:57:37;;;;;;;;;;;21.90;99.90;;;;;;6726315;88;20054;-78
2023/10/01 10:07:40;;;;;;;;;;;22.60;99.90;;;;;;6723309;88;20063;-79
2023/10/01 10:17:56;;;;;;;;;;;22.60;99.90;;;;;;6725164;88;20064;-78
2023/10/01 10:27:57;;;;;;;;;;;23.70;99.90;;;;;;6719498;88;20064;-78
2023/10/01 10:37:58;;;;;;;;;;;24.50;99.90;;;;;;6723071;88;20084;-79
2023/10/01 10:48:01;;;;;;;;;;;24.20;99.90;;;;;;6732035;88;20543;-78
2023/10/01 10:58:11;;;;;;;;;;;24.30;99.90;;;;;;6722636;88;20075;-79
2023/10/01 11:08:25;;;;;;;;;;;25.00;99.90;;;;;;6722091;88;20104;-79
2023/10/01 11:18:26;;;;;;;;;;;25.70;99.90;;;;;;6727352;88;20510;-79
2023/10/01 11:28:41;;;;;;;;;;;26.30;99.90;;;;;;6724896;88;20066;-79
2023/10/01 11:38:47;;;;;;;;;;;26.90;99.90;;;;;;6724800;88;20063;-79
2023/10/01 11:49:04;;;;;;;;;;;25.90;99.90;;;;;;6726797;88;20563;-78
2023/10/01 11:59:08;;;;;;;;;;;25.40;99.90;;;;;;6716158;88;20085;-79
2023/10/01 12:09:08;;;;;;;;;;;25.80;99.90;;;;;;6721614;88;20182;-78
2023/10/01 12:19:24;;;;;;;;;;;25.30;99.90;;;;;;6726427;88;20096;-79
2023/10/01 12:29:38;;;;;;;;;;;25.90;99.90;;;;;;6731309;88;20593;-79
2023/10/01 12:39:42;;;;;;;;;;;26.00;99.90;;;;;;6722893;88;20087;-78
2023/10/01 12:49:58;;;;;;;;;;;26.00;99.90;;;;;;6725955;88;20083;-78
2023/10/01 13:10:32;;;;;;;;;;;26.40;99.90;;;;;;6725738;88;20051;-79
2023/10/01 13:20:46;;;;;;;;;;;26.90;99.90;;;;;;6727522;88;20111;-79
2023/10/01 14:12:08;;;;;;;;;;;27.80;99.50;;;;;;6731611;88;20054;-80
2023/10/01 14:22:19;;;;;;;;;;;27.50;99.60;;;;;;6739248;88;20105;-79
2023/10/01 14:32:31;;;;;;;;;;;27.20;99.80;;;;;;6739208;88;20042;-80
2023/10/01 14:42:36;;;;;;;;;;;27.60;99.50;;;;;;6732776;88;20183;-80
2023/10/01 14:52:41;;;;;;;;;;;27.40;99.50;;;;;;6737677;88;20058;-80
2023/10/01 15:02:41;;;;;;;;;;;27.20;99.30;;;;;;6734166;88;20082;-80
2023/10/01 15:12:48;;;;;;;;;;;27.30;99.60;;;;;;6738793;88;20085;-80
2023/10/01 15:22:49;;;;;;;;;;;27.40;99.50;;;;;;6737488;88;20067;-80
2023/10/01 15:33:00;;;;;;;;;;;27.00;99.50;;;;;;6736730;88;20547;-80
2023/10/01 15:43:00;;;;;;;;;;;27.10;99.60;;;;;;6729678;88;20166;-79
2023/10/01 15:53:04;;;;;;;;;;;26.70;99.80;;;;;;6734461;88;20083;-80
2023/10/01 16:03:08;;;;;;;;;;;26.30;99.90;;;;;;6751241;88;20040;-81
2023/10/01 16:13:10;;;;;;;;;;;26.00;99.90;;;;;;6740216;88;20653;-80
2023/10/01 16:23:14;;;;;;;;;;;25.80;99.90;;;;;;6730936;88;20154;-79
2023/10/01 16:33:17;;;;;;;;;;;25.40;99.90;;;;;;6731231;88;20168;-78
2023/10/01 16:43:19;;;;;;;;;;;24.80;99.90;;;;;;6728391;88;20100;-78
2023/10/01 16:53:19;;;;;;;;;;;24.30;99.90;;;;;;6736329;88;20088;-81
2023/10/01 17:03:26;;;;;;;;;;;23.90;99.90;;;;;;6738523;88;20057;-79
2023/10/01 17:13:27;;;;;;;;;;;23.60;99.90;;;;;;6739861;88;20084;-79
2023/10/01 17:23:30;;;;;;;;;;;23.30;99.90;;;;;;6735626;88;20065;-79
2023/10/01 17:33:30;;;;;;;;;;;23.00;99.90;;;;;;6737424;88;20078;-79
2023/10/01 17:43:31;;;;;;;;;;;22.70;99.90;;;;;;6735806;88;20145;-79
2023/10/01 17:53:32;;;;;;;;;;;22.50;99.90;;;;;;6734337;88;20082;-79
2023/10/01 18:03:32;;;;;;;;;;;22.30;99.90;;;;;;6735479;88;20096;-79
2023/10/01 18:13:33;;;;;;;;;;;22.20;99.90;;;;;;6733269;88;20112;-79
2023/10/01 18:23:33;;;;;;;;;;;22.00;99.90;;;;;;6738748;88;20112;-79
2023/10/01 18:33:35;;;;;;;;;;;21.80;99.90;;;;;;6737062;88;20720;-79
2023/10/01 18:43:36;;;;;;;;;;;21.60;99.90;;;;;;6741646;88;20537;-80
2023/10/01 18:53:40;;;;;;;;;;;20.80;99.90;;;;;;6740259;88;20191;-79
2023/10/01 19:03:46;;;;;;;;;;;20.40;99.90;;;;;;6735856;88;20059;-79
2023/10/01 19:13:50;;;;;;;;;;;20.10;99.90;;;;;;6729310;88;20066;-80
2023/10/01 19:23:56;;;;;;;;;;;19.90;99.90;;;;;;6734859;88;20124;-78
2023/10/01 19:33:58;;;;;;;;;;;19.70;99.90;;;;;;6735632;88;20550;-79
2023/10/01 19:43:59;;;;;;;;;;;19.50;99.90;;;;;;6737126;88;20467;-79
2023/10/01 19:54:01;;;;;;;;;;;19.50;99.90;;;;;;6732814;88;20079;-81
2023/10/01 20:04:02;;;;;;;;;;;19.20;99.90;;;;;;6744562;88;20533;-80
2023/10/01 20:14:05;;;;;;;;;;;19.30;99.90;;;;;;6736864;88;20126;-79
2023/10/01 20:24:13;;;;;;;;;;;19.20;99.90;;;;;;6737274;88;20233;-81
2023/10/01 20:34:14;;;;;;;;;;;19.20;99.90;;;;;;6735628;88;20055;-79
2023/10/01 20:44:14;;;;;;;;;;;19.30;99.90;;;;;;6739441;88;20083;-80
2023/10/01 20:54:15;;;;;;;;;;;19.20;99.90;;;;;;6740128;88;20080;-80
2023/10/01 21:04:26;;;;;;;;;;;19.00;99.90;;;;;;6733278;88;20126;-80
2023/10/01 21:14:32;;;;;;;;;;;19.00;99.90;;;;;;6737792;88;20129;-80
2023/10/01 21:24:37;;;;;;;;;;;18.90;99.90;;;;;;6733385;88;20051;-81
2023/10/01 21:34:39;;;;;;;;;;;18.70;99.90;;;;;;6736085;88;20128;-80
2023/10/01 21:44:41;;;;;;;;;;;18.80;99.90;;;;;;6731528;88;20204;-80
2023/10/01 21:54:50;;;;;;;;;;;18.70;99.90;;;;;;6734037;88;20050;-80
2023/10/01 22:04:56;;;;;;;;;;;18.50;99.90;;;;;;6739277;88;20227;-80
2023/10/01 22:14:56;;;;;;;;;;;18.10;99.90;;;;;;6732548;88;20225;-80
2023/10/01 22:24:57;;;;;;;;;;;17.90;99.90;;;;;;6729160;88;20131;-79
2023/10/01 22:35:07;;;;;;;;;;;17.60;99.90;;;;;;6736382;88;20614;-80
2023/10/01 22:45:26;;;;;;;;;;;17.30;99.90;;;;;;6735279;88;20465;-80
2023/10/01 22:55:27;;;;;;;;;;;17.20;99.90;;;;;;6737600;88;20093;-79
2023/10/01 23:05:48;;;;;;;;;;;17.50;99.90;;;;;;6732504;88;20110;-80
2023/10/01 23:15:48;;;;;;;;;;;17.70;99.90;;;;;;6737275;88;20061;-80
2023/10/01 23:26:03;;;;;;;;;;;17.70;99.90;;;;;;6742230;88;20087;-81
2023/10/01 23:36:10;;;;;;;;;;;17.50;99.90;;;;;;6738913;88;20726;-81
2023/10/01 23:46:16;;;;;;;;;;;17.30;99.90;;;;;;6719772;88;20599;-80
2023/10/01 23:56:17;;;;;;;;;;;17.20;99.90;;;;;;6719327;88;20495;-81
